createdAt,value
2023-12-03T00:00:16.550Z,9.80
2023-12-03T00:02:43.730Z,8.67
2023-12-03T00:05:11.281Z,6.00
2023-12-03T00:07:39.182Z,8.70
2023-12-03T00:10:07.203Z,9.80
2023-12-03T00:12:34.512Z,12.20
2023-12-03T00:15:01.766Z,7.90
2023-12-03T00:17:28.931Z,11.10
2023-12-03T00:19:56.059Z,10.00
2023-12-03T00:22:23.592Z,8.50
2023-12-03T00:24:50.572Z,11.53
2023-12-03T00:27:17.569Z,12.00
2023-12-03T00:29:44.515Z,16.20
2023-12-03T00:32:11.434Z,10.00
2023-12-03T00:34:38.366Z,12.23
2023-12-03T00:37:05.321Z,11.53
2023-12-03T00:39:32.389Z,13.40
2023-12-03T00:41:59.478Z,10.37
2023-12-03T00:44:26.548Z,12.73
2023-12-03T00:46:53.468Z,12.30
2023-12-03T00:49:20.467Z,12.70
2023-12-03T00:51:47.609Z,13.47
2023-12-03T00:54:14.670Z,11.50
2023-12-03T00:56:41.628Z,13.77
2023-12-03T00:59:08.557Z,11.03
2023-12-03T01:01:35.542Z,10.87
2023-12-03T01:04:02.513Z,10.50
2023-12-03T01:06:29.499Z,11.30
2023-12-03T01:08:56.741Z,13.13
2023-12-03T01:11:34.980Z,13.50
2023-12-03T01:14:06.788Z,12.77
2023-12-03T01:16:33.724Z,12.13
2023-12-03T01:19:01.645Z,14.70
2023-12-03T01:21:28.780Z,12.73
2023-12-03T01:23:55.725Z,15.40
2023-12-03T01:26:22.672Z,14.20
2023-12-03T01:28:49.600Z,12.70
2023-12-03T01:31:16.542Z,10.63
2023-12-03T01:33:43.511Z,11.90
2023-12-03T01:36:10.732Z,10.93
2023-12-03T01:38:37.749Z,14.37
2023-12-03T01:41:04.918Z,13.50
2023-12-03T01:43:31.921Z,11.27
2023-12-03T01:45:58.878Z,13.60
2023-12-03T01:48:26.832Z,12.10
2023-12-03T01:50:53.914Z,16.27
2023-12-03T01:53:20.985Z,12.90
2023-12-03T01:55:47.948Z,14.80
2023-12-03T01:58:14.971Z,15.40
2023-12-03T02:00:41.929Z,14.90
2023-12-03T02:03:09.004Z,14.90
2023-12-03T02:05:36.011Z,9.40
2023-12-03T02:08:02.959Z,15.47
2023-12-03T02:10:29.911Z,15.97
2023-12-03T02:12:57.641Z,15.40
2023-12-03T02:15:24.734Z,15.50
2023-12-03T02:17:52.860Z,18.37
2023-12-03T02:20:19.828Z,12.87
2023-12-03T02:23:01.394Z,20.90
2023-12-03T02:25:28.569Z,17.40
2023-12-03T02:27:55.701Z,16.93
2023-12-03T02:30:22.684Z,19.07
2023-12-03T02:32:49.879Z,18.40
2023-12-03T02:35:17.333Z,20.83
2023-12-03T02:37:44.315Z,16.77
2023-12-03T02:40:11.425Z,16.87
2023-12-03T02:42:38.596Z,14.60
2023-12-03T02:45:06.693Z,16.80
2023-12-03T02:47:33.945Z,14.90
2023-12-03T02:50:01.783Z,12.47
2023-12-03T02:52:28.724Z,16.10
2023-12-03T02:54:55.647Z,15.40
2023-12-03T02:57:22.706Z,18.33
2023-12-03T02:59:49.649Z,15.03
2023-12-03T03:02:16.549Z,17.50
2023-12-03T03:04:43.545Z,15.70
2023-12-03T03:07:10.525Z,16.80
2023-12-03T03:09:37.434Z,15.43
2023-12-03T03:12:04.638Z,13.23
2023-12-03T03:14:31.561Z,16.50
2023-12-03T03:16:58.466Z,13.77
2023-12-03T03:19:25.492Z,16.80
2023-12-03T03:21:52.435Z,17.10
2023-12-03T03:24:19.444Z,16.33
2023-12-03T03:26:46.396Z,15.50
2023-12-03T03:29:14.507Z,17.00
2023-12-03T03:31:41.474Z,17.60
2023-12-03T03:34:09.249Z,17.47
2023-12-03T03:36:36.325Z,13.67
2023-12-03T03:39:03.441Z,15.50
2023-12-03T03:41:30.429Z,18.73
2023-12-03T03:43:57.293Z,17.23
2023-12-03T03:46:24.138Z,16.13
2023-12-03T03:48:51.112Z,12.73
2023-12-03T03:51:18.168Z,15.60
2023-12-03T03:53:45.047Z,16.03
2023-12-03T03:56:12.978Z,14.50
2023-12-03T03:58:39.985Z,14.20
2023-12-03T04:01:09.455Z,17.03
2023-12-03T04:03:36.907Z,14.03
2023-12-03T04:06:05.558Z,15.57
2023-12-03T04:08:33.305Z,13.93
2023-12-03T04:11:04.929Z,14.07
2023-12-03T04:13:31.968Z,11.63
2023-12-03T04:15:58.920Z,12.50
2023-12-03T04:18:25.889Z,10.87
2023-12-03T04:20:53.175Z,10.47
2023-12-03T04:23:20.150Z,11.60
2023-12-03T04:25:47.157Z,12.27
2023-12-03T04:28:14.240Z,13.10
2023-12-03T04:30:41.260Z,7.73
2023-12-03T04:33:08.346Z,11.50
2023-12-03T04:35:35.360Z,10.60
2023-12-03T04:38:02.324Z,10.90
2023-12-03T04:40:29.255Z,10.23
2023-12-03T04:42:56.298Z,9.67
2023-12-03T04:45:23.291Z,11.07
2023-12-03T04:47:50.294Z,13.40
2023-12-03T04:50:17.306Z,14.00
2023-12-03T04:52:44.216Z,12.90
2023-12-03T04:55:11.149Z,11.13
2023-12-03T04:57:38.186Z,9.70
2023-12-03T05:00:06.041Z,14.70
2023-12-03T05:02:32.939Z,15.73
2023-12-03T05:04:59.883Z,14.17
2023-12-03T05:07:26.869Z,11.27
2023-12-03T05:09:53.890Z,8.83
2023-12-03T05:12:20.856Z,16.00
2023-12-03T05:14:47.834Z,15.73
2023-12-03T05:17:14.844Z,15.43
2023-12-03T05:19:43.773Z,16.33
2023-12-03T05:22:11.179Z,15.47
2023-12-03T05:24:38.161Z,12.43
2023-12-03T05:27:05.165Z,15.20
2023-12-03T05:29:32.188Z,12.63
2023-12-03T05:31:59.102Z,13.67
2023-12-03T05:34:26.155Z,11.53
2023-12-03T05:36:54.657Z,16.70
2023-12-03T05:39:22.338Z,11.90
2023-12-03T05:41:49.430Z,9.77
2023-12-03T05:44:16.465Z,7.63
2023-12-03T05:46:43.385Z,10.27
2023-12-03T05:49:11.354Z,13.73
2023-12-03T05:51:38.637Z,8.93
2023-12-03T05:54:05.665Z,10.43
2023-12-03T05:56:32.534Z,8.67
2023-12-03T05:58:59.476Z,11.17
2023-12-03T06:01:26.794Z,7.70
2023-12-03T06:03:54.096Z,9.77
2023-12-03T06:06:21.265Z,8.27
2023-12-03T06:08:48.708Z,8.63
2023-12-03T06:11:15.721Z,9.23
2023-12-03T06:13:42.676Z,10.70
2023-12-03T06:16:10.372Z,9.50
2023-12-03T06:18:37.383Z,11.60
2023-12-03T06:21:04.799Z,10.70
2023-12-03T06:23:31.663Z,11.57
2023-12-03T06:25:58.589Z,10.50
2023-12-03T06:28:25.457Z,10.97
2023-12-03T06:30:52.491Z,18.27
2023-12-03T06:33:22.366Z,28.57
2023-12-03T06:35:51.434Z,19.40
2023-12-03T06:38:18.701Z,10.87
2023-12-03T06:40:46.107Z,11.67
2023-12-03T06:43:13.298Z,11.60
2023-12-03T06:45:40.298Z,9.47
2023-12-03T06:48:08.324Z,11.13
2023-12-03T06:50:35.525Z,10.63
2023-12-03T06:53:03.068Z,8.83
2023-12-03T06:55:30.036Z,10.70
2023-12-03T06:57:57.016Z,11.63
2023-12-03T07:00:24.038Z,12.37
2023-12-03T07:02:51.496Z,13.80
2023-12-03T07:05:18.407Z,20.07
2023-12-03T07:07:46.631Z,15.80
2023-12-03T07:10:13.690Z,16.13
2023-12-03T07:12:40.646Z,17.00
2023-12-03T07:15:08.528Z,13.20
2023-12-03T07:17:35.483Z,18.20
2023-12-03T07:20:02.606Z,14.40
2023-12-03T07:22:29.577Z,14.90
2023-12-03T07:24:56.548Z,16.67
2023-12-03T07:27:23.544Z,14.97
2023-12-03T07:29:56.805Z,14.60
2023-12-03T07:32:24.862Z,15.70
2023-12-03T07:34:51.776Z,15.80
2023-12-03T07:37:18.915Z,20.30
2023-12-03T07:39:45.902Z,14.17
2023-12-03T07:42:12.859Z,14.93
2023-12-03T07:44:39.787Z,14.77
2023-12-03T07:47:06.814Z,13.80
2023-12-03T07:49:33.849Z,14.37
2023-12-03T07:52:00.765Z,14.90
2023-12-03T07:54:27.722Z,10.77
2023-12-03T07:56:54.650Z,14.37
2023-12-03T07:59:21.568Z,10.37
2023-12-03T08:01:48.574Z,13.63
2023-12-03T08:04:15.608Z,17.10
2023-12-03T08:06:42.767Z,14.20
2023-12-03T08:09:09.823Z,15.60
2023-12-03T08:11:36.812Z,14.23
2023-12-03T08:14:03.768Z,14.10
2023-12-03T08:16:30.784Z,12.73
2023-12-03T08:18:57.745Z,21.90
2023-12-03T08:21:24.784Z,13.90
2023-12-03T08:23:51.739Z,13.97
2023-12-03T08:26:18.815Z,17.03
2023-12-03T08:28:45.736Z,16.43
2023-12-03T08:31:16.077Z,16.50
2023-12-03T08:33:44.850Z,17.23
2023-12-03T08:36:19.036Z,15.40
2023-12-03T08:38:46.774Z,14.67
2023-12-03T08:41:13.812Z,17.63
2023-12-03T08:43:40.677Z,17.03
2023-12-03T08:46:09.511Z,18.03
2023-12-03T08:48:37.430Z,16.93
2023-12-03T08:51:04.700Z,15.67
2023-12-03T08:53:31.650Z,17.40
2023-12-03T08:55:58.547Z,13.90
2023-12-03T08:58:25.446Z,16.63
2023-12-03T09:00:52.460Z,18.67
2023-12-03T09:03:19.343Z,15.37
2023-12-03T09:05:46.309Z,13.27
2023-12-03T09:08:13.216Z,15.37
2023-12-03T09:10:40.166Z,14.20
2023-12-03T09:13:07.051Z,19.20
2023-12-03T09:15:34.090Z,16.77
2023-12-03T09:18:00.971Z,11.00
2023-12-03T09:20:27.928Z,20.53
2023-12-03T09:22:54.843Z,13.70
2023-12-03T09:25:21.822Z,17.50
2023-12-03T09:27:48.794Z,11.53
2023-12-03T09:30:16.123Z,13.50
2023-12-03T09:32:43.124Z,15.80
2023-12-03T09:35:10.064Z,17.10
2023-12-03T09:37:37.020Z,13.80
2023-12-03T09:40:04.768Z,10.93
2023-12-03T09:42:37.999Z,9.00
2023-12-03T09:45:05.950Z,11.37
2023-12-03T09:47:36.990Z,13.13
2023-12-03T09:50:05.257Z,14.00
2023-12-03T09:52:36.369Z,11.63
2023-12-03T09:55:04.593Z,16.63
2023-12-03T09:57:32.654Z,19.23
2023-12-03T10:00:05.343Z,12.00
2023-12-03T10:02:35.152Z,16.20
2023-12-03T10:05:02.234Z,12.93
2023-12-03T10:07:30.388Z,13.53
2023-12-03T10:10:01.633Z,16.53
2023-12-03T10:12:43.024Z,12.70
2023-12-03T10:15:12.245Z,13.17
2023-12-03T10:17:39.870Z,12.83
2023-12-03T10:20:27.333Z,11.40
2023-12-03T10:23:00.314Z,12.83
2023-12-03T10:25:34.055Z,12.90
2023-12-03T10:28:07.208Z,10.50
2023-12-03T10:30:35.287Z,8.53
2023-12-03T10:33:02.825Z,14.67
2023-12-03T10:35:35.720Z,15.37
2023-12-03T10:38:06.997Z,14.53
2023-12-03T10:40:34.717Z,13.20
2023-12-03T10:43:02.150Z,11.00
2023-12-03T10:45:30.373Z,12.80
2023-12-03T10:48:01.313Z,14.20
2023-12-03T10:50:31.164Z,16.00
2023-12-03T10:53:02.920Z,12.10
2023-12-03T10:55:30.027Z,14.20
2023-12-03T10:58:07.238Z,12.30
2023-12-03T11:00:40.893Z,12.83
2023-12-03T11:03:22.030Z,14.30
2023-12-03T11:05:52.675Z,13.60
2023-12-03T11:08:22.780Z,11.40
2023-12-03T11:10:55.140Z,15.10
2023-12-03T11:13:29.428Z,18.10
2023-12-03T11:16:06.203Z,15.63
2023-12-03T11:18:37.924Z,14.37
2023-12-03T11:21:15.863Z,14.93
2023-12-03T11:24:28.838Z,16.70
2023-12-03T11:26:59.437Z,13.83
2023-12-03T11:29:49.029Z,15.90
2023-12-03T11:32:17.476Z,11.50
2023-12-03T11:34:45.384Z,13.50
2023-12-03T11:37:15.657Z,15.63
2023-12-03T11:39:45.253Z,12.57
2023-12-03T11:42:13.442Z,18.70
2023-12-03T11:44:40.469Z,36.63
2023-12-03T11:47:11.490Z,15.27
2023-12-03T11:49:40.909Z,24.03
2023-12-03T11:52:08.293Z,18.40
2023-12-03T11:54:45.456Z,14.70
2023-12-03T11:57:16.757Z,10.13
2023-12-03T11:59:45.346Z,14.73
2023-12-03T12:02:14.280Z,19.63
2023-12-03T12:04:41.249Z,15.73
2023-12-03T12:07:16.633Z,16.47
2023-12-03T12:09:47.800Z,18.50
2023-12-03T12:12:18.796Z,17.40
2023-12-03T12:14:46.894Z,11.47
2023-12-03T12:17:13.954Z,12.10
2023-12-03T12:19:48.840Z,11.97
2023-12-03T12:22:17.262Z,12.30
2023-12-03T12:24:47.226Z,12.17
2023-12-03T12:27:15.348Z,10.67
2023-12-03T12:29:42.379Z,14.30
2023-12-03T12:32:09.453Z,11.03
2023-12-03T12:34:36.558Z,10.97
2023-12-03T12:37:08.560Z,12.27
2023-12-03T12:39:36.122Z,13.83
2023-12-03T12:42:04.013Z,17.00
2023-12-03T12:44:49.237Z,14.13
2023-12-03T12:47:20.423Z,12.20
2023-12-03T12:49:55.772Z,15.13
2023-12-03T12:52:22.840Z,14.60
2023-12-03T12:54:51.946Z,12.93
2023-12-03T12:57:20.470Z,12.67
2023-12-03T12:59:52.171Z,13.20
2023-12-03T13:02:19.877Z,12.40
2023-12-03T13:04:47.952Z,12.47
2023-12-03T13:07:15.448Z,13.13
2023-12-03T13:09:42.896Z,14.13
2023-12-03T13:12:10.423Z,13.30
2023-12-03T13:14:38.084Z,12.90
2023-12-03T13:17:05.080Z,14.90
2023-12-03T13:19:32.476Z,15.10
2023-12-03T13:21:59.687Z,13.73
2023-12-03T13:24:27.145Z,12.57
2023-12-03T13:26:54.968Z,16.13
2023-12-03T13:29:21.919Z,14.40
2023-12-03T13:31:48.926Z,15.30
2023-12-03T13:34:15.895Z,15.30
2023-12-03T13:36:42.957Z,13.40
2023-12-03T13:39:09.989Z,15.80
2023-12-03T13:41:36.924Z,16.10
2023-12-03T13:44:03.993Z,16.67
2023-12-03T13:46:31.066Z,16.30
2023-12-03T13:48:58.078Z,16.93
2023-12-03T13:51:25.079Z,15.53
2023-12-03T13:53:52.036Z,14.27
2023-12-03T13:56:18.963Z,16.80
2023-12-03T13:58:45.941Z,16.83
2023-12-03T14:01:12.941Z,17.63
2023-12-03T14:03:42.550Z,19.10
2023-12-03T14:06:11.831Z,18.30
2023-12-03T14:08:38.766Z,19.40
2023-12-03T14:11:06.075Z,19.10
2023-12-03T14:13:33.095Z,19.83
2023-12-03T14:16:00.232Z,19.83
2023-12-03T14:18:27.526Z,20.17
2023-12-03T14:20:54.638Z,19.40
2023-12-03T14:23:21.510Z,18.47
2023-12-03T14:25:48.419Z,20.33
2023-12-03T14:28:15.345Z,20.40
2023-12-03T14:30:43.836Z,20.77
2023-12-03T14:33:11.318Z,21.47
2023-12-03T14:35:38.256Z,21.77
2023-12-03T14:38:05.123Z,17.67
2023-12-03T14:40:32.054Z,23.30
2023-12-03T14:42:59.016Z,21.80
2023-12-03T14:45:25.985Z,20.77
2023-12-03T14:47:52.965Z,20.70
2023-12-03T14:50:19.845Z,22.43
2023-12-03T14:52:46.875Z,18.83
2023-12-03T14:55:13.924Z,26.40
2023-12-03T14:57:41.265Z,26.77
2023-12-03T15:00:12.167Z,79.23
2023-12-03T15:02:39.118Z,367.57
2023-12-03T15:05:07.099Z,332.20
2023-12-03T15:07:34.083Z,554.03
2023-12-03T15:10:01.441Z,216.43
2023-12-03T15:12:28.433Z,50.77
2023-12-03T15:14:55.348Z,47.17
2023-12-03T15:17:22.287Z,21.90
2023-12-03T15:19:49.230Z,22.90
2023-12-03T15:22:16.748Z,51.77
2023-12-03T15:24:45.789Z,66.80
2023-12-03T15:27:12.698Z,82.50
2023-12-03T15:29:39.608Z,51.37
2023-12-03T15:32:06.886Z,76.30
2023-12-03T15:34:33.925Z,45.47
2023-12-03T15:37:01.131Z,45.00
2023-12-03T15:39:28.246Z,48.10
2023-12-03T15:41:55.231Z,59.83
2023-12-03T15:44:22.177Z,67.87
2023-12-03T15:46:49.146Z,61.40
2023-12-03T15:49:19.827Z,45.60
2023-12-03T15:51:47.627Z,43.53
2023-12-03T15:54:14.717Z,41.00
2023-12-03T15:56:41.701Z,37.90
2023-12-03T15:59:08.599Z,38.17
2023-12-03T16:01:35.532Z,24.70
2023-12-03T16:04:02.668Z,28.40
2023-12-03T16:06:29.646Z,32.90
2023-12-03T16:08:56.709Z,63.90
2023-12-03T16:11:23.708Z,73.57
2023-12-03T16:13:50.750Z,149.53
2023-12-03T16:16:17.678Z,74.50
2023-12-03T16:18:44.738Z,98.53
2023-12-03T16:21:11.709Z,39.53
2023-12-03T16:23:38.642Z,33.43
2023-12-03T16:26:05.956Z,30.63
2023-12-03T16:28:32.870Z,28.43
2023-12-03T16:30:59.837Z,32.60
2023-12-03T16:33:26.949Z,31.00
2023-12-03T16:35:54.259Z,26.50
2023-12-03T16:38:21.210Z,26.87
2023-12-03T16:40:48.177Z,124.17
2023-12-03T16:43:15.058Z,72.40
2023-12-03T16:45:42.077Z,47.10
2023-12-03T16:48:09.039Z,475.20
2023-12-03T16:50:36.020Z,348.00
2023-12-03T16:53:02.911Z,206.87
2023-12-03T16:55:29.866Z,71.87
2023-12-03T16:57:57.412Z,46.83
2023-12-03T17:00:24.364Z,46.40
2023-12-03T17:02:51.793Z,33.23
2023-12-03T17:05:18.697Z,31.83
2023-12-03T17:07:45.645Z,37.70
2023-12-03T17:10:12.692Z,41.50
2023-12-03T17:12:47.050Z,32.07
2023-12-03T17:15:18.004Z,38.80
2023-12-03T17:17:45.005Z,34.83
2023-12-03T17:20:12.351Z,28.53
2023-12-03T17:22:39.279Z,25.83
2023-12-03T17:25:06.871Z,26.47
2023-12-03T17:27:33.982Z,25.70
2023-12-03T17:30:01.141Z,30.63
2023-12-03T17:32:28.101Z,37.60
2023-12-03T17:34:55.176Z,36.73
2023-12-03T17:37:22.117Z,32.90
2023-12-03T17:39:49.118Z,31.87
2023-12-03T17:42:16.182Z,31.93
2023-12-03T17:44:43.108Z,31.33
2023-12-03T17:47:10.264Z,33.03
2023-12-03T17:49:37.782Z,36.47
2023-12-03T17:52:05.461Z,28.03
2023-12-03T17:54:32.474Z,29.40
2023-12-03T17:56:59.448Z,42.03
2023-12-03T17:59:26.545Z,49.20
2023-12-03T18:01:54.122Z,42.00
2023-12-03T18:04:21.280Z,42.10
2023-12-03T18:06:48.358Z,56.43
2023-12-03T18:09:15.384Z,45.80
2023-12-03T18:11:44.739Z,76.53
2023-12-03T18:14:12.209Z,43.23
2023-12-03T18:16:39.192Z,58.43
2023-12-03T18:19:06.198Z,32.57
2023-12-03T18:21:33.259Z,33.07
2023-12-03T18:24:00.656Z,64.20
2023-12-03T18:26:27.630Z,34.20
2023-12-03T18:28:54.590Z,40.70
2023-12-03T18:31:21.533Z,60.87
2023-12-03T18:33:48.619Z,61.20
2023-12-03T18:36:18.718Z,119.93
2023-12-03T18:38:50.040Z,74.93
2023-12-03T18:41:18.854Z,67.07
2023-12-03T18:43:46.463Z,33.63
2023-12-03T18:46:17.370Z,32.77
2023-12-03T18:48:45.548Z,40.03
2023-12-03T18:51:13.741Z,43.40
2023-12-03T18:53:40.730Z,75.83
2023-12-03T18:56:08.801Z,74.37
2023-12-03T18:58:35.884Z,43.87
2023-12-03T19:01:03.319Z,34.37
2023-12-03T19:03:30.436Z,39.87
2023-12-03T19:05:58.296Z,56.70
2023-12-03T19:08:32.257Z,39.53
2023-12-03T19:11:01.164Z,39.00
2023-12-03T19:13:28.608Z,40.73
2023-12-03T19:15:55.530Z,29.47
2023-12-03T19:18:22.553Z,36.47
2023-12-03T19:20:49.507Z,34.77
2023-12-03T19:23:16.556Z,43.70
2023-12-03T19:25:43.590Z,35.93
2023-12-03T19:28:10.786Z,29.80
2023-12-03T19:30:37.917Z,29.90
2023-12-03T19:33:04.923Z,29.40
2023-12-03T19:35:31.888Z,35.90
2023-12-03T19:37:58.817Z,24.53
2023-12-03T19:40:25.768Z,25.43
2023-12-03T19:42:52.731Z,28.33
2023-12-03T19:45:19.716Z,30.83
2023-12-03T19:47:46.916Z,33.00
2023-12-03T19:50:14.140Z,39.70
2023-12-03T19:52:41.172Z,39.60
2023-12-03T19:55:09.028Z,28.47
2023-12-03T19:57:36.128Z,28.77
2023-12-03T20:00:04.556Z,29.57
2023-12-03T20:02:31.655Z,36.03
2023-12-03T20:04:59.102Z,32.20
2023-12-03T20:07:26.283Z,40.00
2023-12-03T20:09:53.907Z,38.47
2023-12-03T20:12:20.895Z,41.70
2023-12-03T20:14:47.849Z,35.87
2023-12-03T20:17:15.348Z,39.60
2023-12-03T20:19:42.514Z,35.97
2023-12-03T20:22:09.595Z,39.73
2023-12-03T20:24:36.536Z,37.33
2023-12-03T20:27:03.659Z,37.13
2023-12-03T20:29:31.160Z,42.87
2023-12-03T20:31:58.089Z,37.87
2023-12-03T20:34:25.090Z,30.50
2023-12-03T20:36:52.118Z,32.40
2023-12-03T20:39:19.339Z,37.07
2023-12-03T20:41:46.190Z,39.83
2023-12-03T20:44:13.119Z,33.83
2023-12-03T20:46:40.051Z,31.37
2023-12-03T20:49:07.011Z,37.03
2023-12-03T20:51:34.023Z,35.70
2023-12-03T20:54:01.217Z,34.70
2023-12-03T20:56:28.177Z,31.27
2023-12-03T20:58:55.118Z,23.97
2023-12-03T21:01:22.128Z,38.60
2023-12-03T21:03:49.030Z,36.07
2023-12-03T21:06:16.049Z,37.53
2023-12-03T21:08:42.982Z,31.10
2023-12-03T21:11:12.026Z,34.90
2023-12-03T21:13:41.744Z,41.70
2023-12-03T21:16:09.372Z,27.73
2023-12-03T21:18:36.397Z,29.07
2023-12-03T21:21:03.591Z,35.60
2023-12-03T21:23:30.545Z,33.87
2023-12-03T21:25:57.413Z,26.03
2023-12-03T21:28:24.495Z,34.60
2023-12-03T21:30:52.256Z,39.13
2023-12-03T21:33:19.422Z,41.60
2023-12-03T21:35:46.436Z,33.40
2023-12-03T21:38:13.526Z,31.43
2023-12-03T21:40:40.550Z,48.27
2023-12-03T21:43:07.804Z,25.10
2023-12-03T21:45:34.917Z,36.60
2023-12-03T21:48:02.022Z,27.50
2023-12-03T21:50:28.973Z,30.87
2023-12-03T21:52:55.951Z,28.77
2023-12-03T21:55:22.843Z,28.50
2023-12-03T21:57:49.889Z,28.17
2023-12-03T22:00:17.483Z,26.10
2023-12-03T22:02:44.634Z,29.90
2023-12-03T22:05:11.661Z,36.13
2023-12-03T22:07:38.657Z,26.40
2023-12-03T22:10:06.630Z,28.37
2023-12-03T22:12:33.594Z,34.47
2023-12-03T22:15:00.558Z,23.67
2023-12-03T22:17:27.548Z,34.70
2023-12-03T22:19:54.952Z,36.97
2023-12-03T22:22:22.372Z,36.67
2023-12-03T22:24:49.328Z,37.37
2023-12-03T22:27:16.402Z,45.13
2023-12-03T22:29:49.855Z,40.00
2023-12-03T22:32:19.118Z,50.70
2023-12-03T22:34:46.155Z,32.27
2023-12-03T22:37:13.166Z,36.13
2023-12-03T22:39:40.055Z,35.10
2023-12-03T22:42:07.046Z,37.10
2023-12-03T22:44:34.018Z,58.33
2023-12-03T22:47:00.991Z,45.73
2023-12-03T22:49:28.019Z,36.10
2023-12-03T22:51:55.058Z,49.93
2023-12-03T22:54:22.023Z,44.63
2023-12-03T22:56:48.978Z,46.50
2023-12-03T22:59:16.037Z,37.90
2023-12-03T23:01:43.034Z,38.73
2023-12-03T23:04:10.732Z,41.37
2023-12-03T23:06:37.845Z,36.43
2023-12-03T23:09:05.163Z,42.73
2023-12-03T23:11:32.077Z,36.80
2023-12-03T23:13:59.020Z,45.17
2023-12-03T23:16:25.996Z,41.83
2023-12-03T23:18:53.021Z,42.33
2023-12-03T23:21:20.026Z,38.03
2023-12-03T23:23:46.950Z,45.63
2023-12-03T23:26:14.707Z,49.27
2023-12-03T23:28:41.598Z,46.57
2023-12-03T23:31:11.061Z,46.30
2023-12-03T23:33:38.234Z,40.57
2023-12-03T23:36:05.713Z,39.57
2023-12-03T23:38:32.645Z,41.43
2023-12-03T23:40:59.565Z,42.33
2023-12-03T23:43:26.479Z,43.60
2023-12-03T23:45:53.413Z,53.63
2023-12-03T23:48:20.534Z,50.80
2023-12-03T23:50:47.590Z,34.40
2023-12-03T23:53:14.522Z,41.00
2023-12-03T23:55:41.451Z,34.87
2023-12-03T23:58:08.490Z,49.13
